Flight Track Log - Related Links

Times and Time Zones

All times are in EDT time to prevent confusion due to time zone crossing. See the AAL8 flight status page for this flight to view local times or setup timezone preferences in your user account.

Time Position Orientation Groundspeed Altitude Reporting Facility
EDT Latitude Longitude Course Direction KTS MPH feet Rate Location/Type
Fri 10:49:23 PM 21.3031 -157.8690 264° West  Level FlightAware Approximate
Fri 10:50:05 PM 21.3000 -157.9000 148° Southeast 180 207 1,200  Level Honolulu Center
Fri 10:51:05 PM 21.2500 -157.8667 105° East 220 253 3,200 2,300 Climbing Honolulu Center
Fri 10:52:05 PM 21.2333 -157.8000 105° East 250 288 5,800 2,678 Climbing Honolulu Center
Fri 10:53:06 PM 21.2167 -157.7333 90° East 270 311 8,600 2,678 Climbing Honolulu Center
Fri 10:54:06 PM 21.2167 -157.6500 80° East 280 322 11,200 2,000 Climbing Honolulu Center
Fri 10:55:06 PM 21.2333 -157.5500 81° East 350 403 12,600 1,835 Climbing Honolulu Center
Fri 10:56:07 PM 21.2500 -157.4333 81° East 390 449 14,900 2,231 Climbing Honolulu Center
Fri 10:57:07 PM 21.2667 -157.3167 90° East 410 472 17,100 2,300 Climbing Honolulu Center
Fri 10:58:07 PM 21.2667 -157.1833 82° East 420 483 19,500 2,200 Climbing Honolulu Center
Fri 10:59:07 PM 21.2833 -157.0500 82° East 440 506 21,500 1,934 Climbing Honolulu Center
Fri 11:00:08 PM 21.3000 -156.9167 82° East 460 529 23,400 1,736 Climbing Honolulu Center
Fri 11:01:08 PM 21.3167 -156.7833 83° East 480 552 25,000 1,550 Climbing Honolulu Center
Fri 11:02:08 PM 21.3333 -156.6333 77° East 500 575 26,500 1,438 Climbing Honolulu Center
Fri 11:03:09 PM 21.3667 -156.4833 78° East 510 587 27,900 1,587 Climbing Honolulu Center
Fri 11:04:09 PM 21.4000 -156.3167 77° East 520 598 29,700 1,686 Climbing Honolulu Center
Fri 11:05:10 PM 21.4333 -156.1667 75° East 530 610 31,300 1,388 Climbing Honolulu Center
Fri 11:06:10 PM 21.4667 -156.0333 77° East 530 610 32,500 1,250 Climbing Honolulu Center
Fri 11:07:10 PM 21.5000 -155.8833 78° East 530 610 33,800 1,250 Climbing Honolulu Center
Fri 11:08:10 PM 21.5333 -155.7167 77° East 530 610 35,000 595 Climbing Honolulu Center
Fri 11:09:11 PM 21.5667 -155.5667 77° East 510 587 35,000  Level Honolulu Center
Fri 11:10:11 PM 21.6000 -155.4167 77° East 500 575 35,000  Level Honolulu Center
Fri 11:11:11 PM 21.6333 -155.2667 77° East 520 598 35,000  Level Honolulu Center
Fri 11:12:12 PM 21.6667 -155.1167 77° East 520 598 35,000  Level Honolulu Center
Fri 11:13:12 PM 21.7000 -154.9667 77° East 530 610 35,000 -500 Level Honolulu Center
Fri 11:14:12 PM 21.7333 -154.8167 78° East 530 610 34,000 -500 Descending Honolulu Center
Fri 11:15:12 PM 21.7667 -154.6500 77° East 520 598 34,000  Level Honolulu Center
Fri 11:16:13 PM 21.8000 -154.5000 77° East 530 610 34,000  Level Honolulu Center
Fri 11:17:13 PM 21.8333 -154.3500 77° East 530 610 34,000  Level Honolulu Center
Fri 11:18:13 PM 21.8667 -154.2000 78° East 530 610 34,000  Level Honolulu Center
Fri 11:19:13 PM 21.9000 -154.0333 77° East 530 610 34,000  Level Honolulu Center
Fri 11:20:14 PM 21.9333 -153.8833 76° East 530 610 34,000  Level Honolulu Center
Fri 11:21:14 PM 21.9667 -153.7333 65° Northeast 530 610 34,000  Level Honolulu Center
Sat 12:20:01 AM 25.2833 -145.5167 65° Northeast 478 550 34,000 Level Oakland Oceanic (ODAPS)
Sat 01:11:03 AM 27.9167 -138.8500 68° East 458 527 35,000 10 Climbing Oakland Oceanic (ODAPS)
Sat 02:02:32 AM 30.2833 -131.6333 71° East 516 594 35,000  Level Oakland Oceanic (ODAPS)
Sat 02:10:23 AM 30.7107 -130.1547 72° East 516 594 35,000  Level FlightAware Transoceanic
Sat 02:11:23 AM 30.7553 -129.9964 72° East 516 594 35,000  Level FlightAware Transoceanic
Sat 02:12:23 AM 30.7996 -129.8379 72° East 516 594 35,000  Level FlightAware Transoceanic
Sat 02:13:23 AM 30.8438 -129.6792 72° East 516 594 35,000  Level FlightAware Transoceanic
Sat 02:14:23 AM 30.8878 -129.5205 72° East 516 594 35,000  Level FlightAware Transoceanic
Sat 02:15:23 AM 30.9315 -129.3615 72° East 516 594 35,000  Level FlightAware Transoceanic
Sat 02:16:23 AM 30.9751 -129.2025 72° East 516 594 35,000  Level FlightAware Transoceanic
Sat 02:17:23 AM 31.0185 -129.0432 72° East 516 594 35,000  Level FlightAware Transoceanic
Sat 02:18:23 AM 31.0617 -128.8839 72° East 516 594 35,000  Level FlightAware Transoceanic
Sat 02:19:23 AM 31.1047 -128.7244 73° East 516 594 35,000  Level FlightAware Transoceanic
Sat 02:20:23 AM 31.1475 -128.5647 73° East 516 594 35,000  Level FlightAware Transoceanic
Sat 02:21:23 AM 31.1901 -128.4049 73° East 516 594 35,000  Level FlightAware Transoceanic
Sat 02:22:23 AM 31.2325 -128.2450 73° East 516 594 35,000  Level FlightAware Transoceanic
Sat 02:23:23 AM 31.2747 -128.0849 73° East 516 594 35,000  Level FlightAware Transoceanic
Sat 02:24:23 AM 31.3168 -127.9247 73° East 516 594 35,000  Level FlightAware Transoceanic
Sat 02:25:23 AM 31.3586 -127.7643 73° East 516 594 35,000  Level FlightAware Transoceanic
Sat 02:26:23 AM 31.4002 -127.6038 73° East 516 594 35,000  Level FlightAware Transoceanic
Sat 02:27:23 AM 31.4416 -127.4432 73° East 516 594 35,000  Level FlightAware Transoceanic
Sat 02:28:23 AM 31.4828 -127.2824 73° East 516 594 35,000  Level FlightAware Transoceanic
Sat 02:29:23 AM 31.5238 -127.1214 73° East 516 594 35,000  Level FlightAware Transoceanic
Sat 02:30:23 AM 31.5646 -126.9604 73° East 516 594 35,000  Level FlightAware Transoceanic
Sat 02:31:23 AM 31.6052 -126.7991 74° East 516 594 35,000  Level FlightAware Transoceanic
Sat 02:32:23 AM 31.6457 -126.6378 74° East 516 594 35,000  Level FlightAware Transoceanic
Sat 02:33:23 AM 31.6859 -126.4763 74° East 516 594 35,000  Level FlightAware Transoceanic
Sat 02:34:23 AM 31.7259 -126.3146 74° East 516 594 35,000  Level FlightAware Transoceanic
Sat 02:35:23 AM 31.7657 -126.1529 74° East 516 594 35,000  Level FlightAware Transoceanic
Sat 02:36:23 AM 31.8053 -125.9910 74° East 516 594 35,000  Level FlightAware Transoceanic
Sat 02:37:23 AM 31.8446 -125.8289 74° East 516 594 35,000  Level FlightAware Transoceanic
Sat 02:38:23 AM 31.8838 -125.6667 74° East 516 594 35,000  Level FlightAware Transoceanic
Sat 02:39:23 AM 31.9228 -125.5044 74° East 516 594 35,000  Level FlightAware Transoceanic
Sat 02:40:23 AM 31.9615 -125.3419 74° East 516 594 35,000  Level FlightAware Transoceanic
Sat 02:41:23 AM 32.0001 -125.1793 74° East 516 594 35,000  Level FlightAware Transoceanic
Sat 02:42:23 AM 32.0385 -125.0166 75° East 516 594 35,000  Level FlightAware Transoceanic
Sat 02:43:23 AM 32.0766 -124.8537 75° East 516 594 35,000  Level FlightAware Transoceanic
Sat 02:44:23 AM 32.1146 -124.6907 75° East 516 594 35,000  Level FlightAware Transoceanic
Sat 02:45:23 AM 32.1523 -124.5275 75° East 516 594 35,000  Level FlightAware Transoceanic
Sat 02:46:23 AM 32.1898 -124.3643 75° East 516 594 35,000  Level FlightAware Transoceanic
Sat 02:47:23 AM 32.2271 -124.2008 76° East 516 594 35,000  Level FlightAware Transoceanic
Sat 02:48:23 AM 32.2621 -124.0399 77° East 516 594 35,000  Level FlightAware Transoceanic
Sat 02:49:23 AM 32.2936 -123.8830 77° East 516 594 35,000  Level FlightAware Transoceanic
Sat 02:50:23 AM 32.3248 -123.7261 77° East 516 594 35,000  Level FlightAware Transoceanic
Sat 02:51:23 AM 32.3559 -123.5690 77° East 516 594 35,000  Level FlightAware Transoceanic
Sat 02:52:23 AM 32.3868 -123.4118 77° East 516 594 35,000  Level FlightAware Transoceanic
Sat 02:53:23 AM 32.4175 -123.2545 77° East 516 594 35,000  Level FlightAware Transoceanic
Sat 02:54:23 AM 32.4480 -123.0971 75° East 516 594 35,000 Level FlightAware Transoceanic
Sat 02:55:23 AM 32.4801 -122.9420 75° East  Level FlightAware Approximate
Sat 02:56:23 AM 32.5234 -122.7907 76° East  Level FlightAware Approximate
Sat 02:57:23 AM 32.5664 -122.6392 76° East  Level FlightAware Approximate
Sat 02:58:23 AM 32.6093 -122.4876 76° East  Level FlightAware Approximate
Sat 02:59:23 AM 32.6520 -122.3358 77° East  Level FlightAware Approximate
Sat 03:00:23 AM 32.6945 -122.1839 77° East  Level FlightAware Approximate
Sat 03:01:23 AM 32.6904 -122.0259 76° East  Level FlightAware Approximate
Sat 03:02:23 AM 32.7333 -121.8740 77° East  Level FlightAware Approximate
Sat 03:03:23 AM 32.7761 -121.7221 77° East  Level FlightAware Approximate
Sat 03:04:23 AM 32.8186 -121.5699 78° East  Level FlightAware Approximate
Sat 03:05:23 AM 32.8610 -121.4177 79° East  Level FlightAware Approximate
Sat 03:06:23 AM 32.9032 -121.2653 79° East  Level FlightAware Approximate
Sat 03:07:23 AM 32.9452 -121.1127 81° East  Level FlightAware Approximate
Sat 03:08:23 AM 32.9870 -120.9600 82° East  Level FlightAware Approximate
Sat 03:09:23 AM 33.0286 -120.8072 84° East  Level FlightAware Approximate
Sat 03:10:23 AM 33.0701 -120.6542 86° East  Level FlightAware Approximate
Sat 03:11:23 AM 33.1254 -120.5089 91° East  Level FlightAware Approximate
Sat 03:12:23 AM 33.1612 -120.3538 97° East  Level FlightAware Approximate
Sat 03:12:54 AM 33.1122 -119.8708 79° East 515 593 35,100  Level Los Angeles Center
Sat 03:13:55 AM 33.1397 -119.7022 78° East 513 590 35,100  Level Los Angeles Center
Sat 03:14:55 AM 33.1689 -119.5339 78° East 512 589 35,100  Level Los Angeles Center
Sat 03:15:56 AM 33.1992 -119.3667 77° East 510 587 35,100  Level Los Angeles Center
Sat 03:16:56 AM 33.2308 -119.1981 77° East 513 590 35,100  Level Los Angeles Center
Sat 03:17:57 AM 33.2642 -119.0297 78° East 515 593 35,100  Level Los Angeles Center
Sat 03:18:57 AM 33.2944 -118.8631 78° East 511 588 35,100  Level Los Angeles Center
Sat 03:19:58 AM 33.3247 -118.6958 78° East 510 587 35,100  Level Los Angeles Center
Sat 03:20:58 AM 33.3550 -118.5289 78° East 511 588 35,100  Level Los Angeles Center
Sat 03:21:59 AM 33.3839 -118.3631 81° East 508 585 35,100  Level Los Angeles Center
Sat 03:22:59 AM 33.4056 -118.1950 83° East 509 586 35,100  Level Los Angeles Center
Sat 03:24:00 AM 33.4236 -118.0275 86° East 508 585 35,100  Level Los Angeles Center
Sat 03:25:00 AM 33.4328 -117.8592 86° East 506 582 35,100  Level Los Angeles Center
Sat 03:26:00 AM 33.4425 -117.6911 86° East 503 579 35,100  Level Los Angeles Center
Sat 03:27:01 AM 33.4525 -117.5219 86° East 504 580 35,100  Level Los Angeles Center
Sat 03:28:01 AM 33.4633 -117.3528 86° East 504 580 35,100  Level Los Angeles Center
Sat 03:29:02 AM 33.4728 -117.1839 87° East 502 578 35,100  Level Los Angeles Center
Sat 03:30:02 AM 33.4781 -117.0378 86° East 501 577 35,100  Level Los Angeles Center
Sat 03:31:03 AM 33.4869 -116.8692 87° East 504 580 35,100 -50 Level Los Angeles Center
Sat 03:32:03 AM 33.4953 -116.7008 87° East 505 581 35,000 -50 Descending Los Angeles Center
Sat 03:33:03 AM 33.5036 -116.5325 86° East 504 580 35,000  Level Los Angeles Center
Sat 03:34:04 AM 33.5122 -116.3653 87° East 503 579 35,000 50 Level Los Angeles Center
Sat 03:35:04 AM 33.5203 -116.1983 87° East 501 577 35,100 298 Climbing Los Angeles Center
Sat 03:36:05 AM 33.5272 -116.0331 88° East 497 572 35,600 496 Climbing Los Angeles Center
Sat 03:37:05 AM 33.5322 -115.8653 87° East 501 577 36,100 500 Climbing Los Angeles Center
Sat 03:38:05 AM 33.5406 -115.6972 87° East 503 579 36,600 446 Climbing Los Angeles Center
Sat 03:39:06 AM 33.5469 -115.5297 88° East 503 579 37,000 198 Climbing Los Angeles Center
Sat 03:40:06 AM 33.5522 -115.3611 87° East 505 581 37,000  Level Los Angeles Center
Sat 03:41:06 AM 33.5594 -115.1936 88° East 504 580 37,000  Level Los Angeles Center
Sat 03:42:07 AM 33.5650 -115.0275 87° East 501 577 37,000  Level Los Angeles Center
Sat 03:43:07 AM 33.5714 -114.8636 88° East 496 571 37,000  Level Los Angeles Center
Sat 03:45:21 AM 33.5850 -114.4719 88° East 476 548 37,000  Level Albuquerque Center
Sat 03:46:21 AM 33.5906 -114.3056 90° East 482 555 37,000 50 Level Albuquerque Center
Sat 03:47:21 AM 33.5908 -114.1561 87° East 488 562 37,100 50 Climbing Albuquerque Center
Sat 03:48:21 AM 33.5978 -113.9922 88° East 495 570 37,100  Level Albuquerque Center
Sat 03:49:21 AM 33.6017 -113.8103 86° East 495 570 37,100 -50 Level Albuquerque Center
Sat 03:50:21 AM 33.6103 -113.6489 89° East 490 564 37,000 -50 Descending Albuquerque Center
Sat 03:51:21 AM 33.6122 -113.4897 88° East 490 564 37,000  Level Albuquerque Center
Sat 03:52:21 AM 33.6164 -113.3253 88° East 490 564 37,000  Level Albuquerque Center
Sat 03:53:21 AM 33.6203 -113.1611 88° East 490 564 37,000  Level Albuquerque Center
Sat 03:54:21 AM 33.6239 -112.9992 89° East 490 564 37,000  Level Albuquerque Center
Sat 03:55:21 AM 33.6272 -112.8347 89° East 483 556 37,000  Level Albuquerque Center
Sat 03:56:21 AM 33.6300 -112.6781 90° East 483 556 37,000 50 Level Albuquerque Center
Sat 03:57:21 AM 33.6306 -112.5258 89° East 483 556 37,100 50 Climbing Albuquerque Center
Sat 03:58:21 AM 33.6331 -112.3664 89° East 483 556 37,100  Level Albuquerque Center
Sat 03:59:21 AM 33.6356 -112.2069 89° East 477 549 37,100  Level Albuquerque Center
Sat 04:00:22 AM 33.6378 -112.0425 89° East 477 549 37,100  Level Albuquerque Center
Sat 04:01:22 AM 33.6397 -111.8856 90° East 477 549 37,100  Level Albuquerque Center
Sat 04:02:22 AM 33.6394 -111.7283 88° East 477 549 37,100  Level Albuquerque Center
Sat 04:03:22 AM 33.6428 -111.5714 89° East 477 549 37,100  Level Albuquerque Center
Sat 04:04:22 AM 33.6442 -111.4119 89° East 477 549 37,100  Level Albuquerque Center
Sat 04:05:22 AM 33.6453 -111.2547 89° East 477 549 37,100  Level Albuquerque Center
Sat 04:06:22 AM 33.6481 -111.0978 90° East 477 549 37,100  Level Albuquerque Center
Sat 04:07:22 AM 33.6469 -110.9381 90° East 477 549 37,100  Level Albuquerque Center
Sat 04:08:22 AM 33.6478 -110.7658 91° East 477 549 37,100  Level Albuquerque Center
Sat 04:09:22 AM 33.6458 -110.6036 89° East 477 549 37,100  Level Albuquerque Center
Sat 04:10:22 AM 33.6481 -110.4442 92° East 477 549 37,100  Level Albuquerque Center
Sat 04:11:22 AM 33.6433 -110.3019 90° East 472 543 37,100  Level Albuquerque Center
Sat 04:12:22 AM 33.6431 -110.1397 90° East 477 549 37,100  Level Albuquerque Center
Sat 04:13:22 AM 33.6422 -109.9825 91° East 477 549 37,100  Level Albuquerque Center
Sat 04:14:22 AM 33.6394 -109.8228 90° East 477 549 37,100  Level Albuquerque Center
Sat 04:15:22 AM 33.6386 -109.6608 91° East 477 549 37,100  Level Albuquerque Center
Sat 04:16:22 AM 33.6372 -109.5036 90° East 477 549 37,100  Level Albuquerque Center
Sat 04:17:22 AM 33.6381 -109.3439 92° East 477 549 37,100  Level Albuquerque Center
Sat 04:18:22 AM 33.6342 -109.1842 90° East 477 549 37,100  Level Albuquerque Center
Sat 04:19:22 AM 33.6344 -109.0247 92° East 477 549 37,100  Level Albuquerque Center
Sat 04:20:22 AM 33.6303 -108.8650 90° East 477 549 37,100  Level Albuquerque Center
Sat 04:21:22 AM 33.6300 -108.7053 91° East 477 549 37,100  Level Albuquerque Center
Sat 04:22:22 AM 33.6278 -108.5431 91° East 477 549 37,100  Level Albuquerque Center
Sat 04:23:22 AM 33.6250 -108.3836 91° East 477 549 37,100  Level Albuquerque Center
Sat 04:24:22 AM 33.6219 -108.2214 93° East 477 549 37,100 -50 Level Albuquerque Center
Sat 04:25:22 AM 33.6147 -108.0544 91° East 469 540 37,000 -50 Descending Albuquerque Center
Sat 04:26:22 AM 33.6114 -107.8922 91° East 469 540 37,000  Level Albuquerque Center
Sat 04:27:22 AM 33.6100 -107.7300 92° East 474 545 37,000  Level Albuquerque Center
Sat 04:28:22 AM 33.6061 -107.5731 92° East 479 551 37,000  Level Albuquerque Center
Sat 04:29:22 AM 33.6022 -107.4161 92° East 479 551 37,000  Level Albuquerque Center
Sat 04:30:22 AM 33.5981 -107.2514 92° East 479 551 37,000  Level Albuquerque Center
Sat 04:31:22 AM 33.5936 -107.0944 92° East 479 551 37,000  Level Albuquerque Center
Sat 04:32:22 AM 33.5889 -106.9325 92° East 479 551 37,000  Level Albuquerque Center
Sat 04:33:22 AM 33.5842 -106.7703 92° East 479 551 37,000  Level Albuquerque Center
Sat 04:34:22 AM 33.5789 -106.6061 92° East 479 551 37,000  Level Albuquerque Center
Sat 04:35:22 AM 33.5736 -106.4439 93° East 479 551 37,000  Level Albuquerque Center
Sat 04:36:22 AM 33.5661 -106.2822 92° East 479 551 37,000  Level Albuquerque Center
Sat 04:37:22 AM 33.5603 -106.1228 92° East 479 551 37,000  Level Albuquerque Center
Sat 04:38:22 AM 33.5544 -105.9608 93° East 479 551 37,000  Level Albuquerque Center
Sat 04:39:22 AM 33.5461 -105.7967 92° East 479 551 37,000  Level Albuquerque Center
Sat 04:40:22 AM 33.5419 -105.6372 95° East 479 551 37,000 50 Level Albuquerque Center
Sat 04:41:22 AM 33.5292 -105.4781 93° East 479 551 37,100 50 Climbing Albuquerque Center
Sat 04:42:22 AM 33.5225 -105.3361 94° East 479 551 37,100  Level Albuquerque Center
Sat 04:43:22 AM 33.5131 -105.1597 91° East 479 551 37,100  Level Albuquerque Center
Sat 04:44:22 AM 33.5106 -105.0178 93° East 484 557 37,100  Level Albuquerque Center
Sat 04:45:22 AM 33.5028 -104.8411 93° East 472 543 37,100  Level Albuquerque Center
Sat 04:46:22 AM 33.4956 -104.6969 92° East 477 549 37,100  Level Albuquerque Center
Sat 04:47:22 AM 33.4897 -104.5353 94° East 477 549 37,100  Level Albuquerque Center
Sat 04:48:22 AM 33.4792 -104.3589 93° East 477 549 37,100  Level Albuquerque Center
Sat 04:49:22 AM 33.4733 -104.2172 93° East 477 549 37,100  Level Albuquerque Center
Sat 04:51:40 AM 33.4556 -103.8339 95° East 483 556 37,100  Level Fort Worth Center
Sat 04:52:40 AM 33.4447 -103.6764 94° East 475 547 37,100  Level Fort Worth Center
Sat 04:53:40 AM 33.4358 -103.5189 96° East 475 547 37,100  Level Fort Worth Center
Sat 04:54:40 AM 33.4225 -103.3614 94° East 481 554 37,100  Level Fort Worth Center
Sat 04:55:40 AM 33.4133 -103.2039 94° East 481 554 37,100  Level Fort Worth Center
Sat 04:56:40 AM 33.4053 -103.0617 95° East 476 548 37,100  Level Fort Worth Center
Sat 04:57:40 AM 33.3936 -102.9017 94° East 484 557 37,100  Level Fort Worth Center
Sat 04:58:40 AM 33.3836 -102.7467 95° East 475 547 37,100  Level Fort Worth Center
Sat 04:59:40 AM 33.3719 -102.5744 96° East 475 547 37,100  Level Fort Worth Center
Sat 05:00:40 AM 33.3578 -102.4119 95° East 473 544 37,100  Level Fort Worth Center
Sat 05:01:40 AM 33.3472 -102.2547 95° East 473 544 37,100  Level Fort Worth Center
Sat 05:02:40 AM 33.3364 -102.0975 95° East 480 552 37,100  Level Fort Worth Center
Sat 05:03:40 AM 33.3256 -101.9381 94° East 480 552 37,100  Level Fort Worth Center
Sat 05:04:40 AM 33.3164 -101.7833 94° East 480 552 37,100  Level Fort Worth Center
Sat 05:05:40 AM 33.3069 -101.6364 94° East 482 555 37,100  Level Fort Worth Center
Sat 05:06:40 AM 33.2958 -101.4667 96° East 482 555 37,100  Level Fort Worth Center
Sat 05:07:40 AM 33.2836 -101.3247 94° East 482 555 37,100  Level Fort Worth Center
Sat 05:08:40 AM 33.2725 -101.1478 94° East 482 555 37,100  Level Fort Worth Center
Sat 05:09:40 AM 33.2639 -101.0058 96° East 482 555 37,100  Level Fort Worth Center
Sat 05:10:40 AM 33.2494 -100.8511 96° East 482 555 37,100  Level Fort Worth Center
Sat 05:11:40 AM 33.2350 -100.6942 94° East 482 555 37,100  Level Fort Worth Center
Sat 05:12:40 AM 33.2244 -100.5350 95° East 482 555 37,100  Level Fort Worth Center
Sat 05:13:40 AM 33.2117 -100.3756 96° East 482 555 37,100  Level Fort Worth Center
Sat 05:14:40 AM 33.1967 -100.2036 96° East 482 555 37,100  Level Fort Worth Center
Sat 05:15:40 AM 33.1814 -100.0444 93° East 482 555 37,100  Level Fort Worth Center
Sat 05:16:40 AM 33.1742 -99.8828 88° East 482 555 37,100  Level Fort Worth Center
Sat 05:17:40 AM 33.1794 -99.7242 88° East 482 555 37,100  Level Fort Worth Center
Sat 05:18:40 AM 33.1844 -99.5656 87° East 477 549 37,100 -450 Level Fort Worth Center
Sat 05:19:40 AM 33.1911 -99.4067 87° East 477 549 36,200 -1,300 Descending Fort Worth Center
Sat 05:20:40 AM 33.1978 -99.2456 92° East 477 549 34,500 -1,450 Descending Fort Worth Center
Sat 05:21:40 AM 33.1939 -99.0817 103° East 477 549 33,300 -1,400 Descending Fort Worth Center
Sat 05:22:40 AM 33.1625 -98.9197 103° East 483 556 31,700 -2,350 Descending Fort Worth Center
Sat 05:23:40 AM 33.1331 -98.7631 106° East 483 556 28,600 -2,800 Descending Fort Worth Center
Sat 05:24:40 AM 33.0950 -98.6036 103° East 491 565 26,100 -2,250 Descending Fort Worth Center
Sat 05:25:40 AM 33.0708 -98.4819 106° East 491 565 24,100 -2,400 Descending Fort Worth Center
Sat 05:26:40 AM 33.0325 -98.3203 104° East 468 539 21,300 -2,750 Descending Fort Worth Center
Sat 05:27:40 AM 33.0003 -98.1639 103° East 452 520 18,600 -2,621 Descending Fort Worth Center
Sat 05:28:23 AM 32.9808 -98.0639 103° East 439 505 16,800 -2,386 Descending FAA TRACON SMA TRACON (SMA)
Sat 05:29:03 AM 32.9639 -97.9794 104° East 428 493 15,300 -2,400 Descending FAA TRACON SMA TRACON (SMA)
Sat 05:29:43 AM 32.9447 -97.8861 105° East 420 483 13,600 -2,475 Descending FAA TRACON SMA TRACON (SMA)
Sat 05:30:23 AM 32.9236 -97.7947 105° East 413 475 12,000 -2,100 Descending FAA TRACON SMA TRACON (SMA)
Sat 05:31:03 AM 32.9053 -97.7156 105° East 403 464 10,800 -1,275 Descending FAA TRACON SMA TRACON (SMA)
Sat 05:31:43 AM 32.8875 -97.6347 105° East 363 418 10,300 -600 Descending FAA TRACON SMA TRACON (SMA)
Sat 05:32:23 AM 32.8717 -97.5661 105° East 307 353 10,000 -975 Descending FAA TRACON SMA TRACON (SMA)
Sat 05:33:03 AM 32.8589 -97.5094 105° East 289 333 9,000 -1,500 Descending FAA TRACON SMA TRACON (SMA)
Sat 05:33:43 AM 32.8444 -97.4442 105° East 294 338 8,000 -1,800 Descending FAA TRACON SMA TRACON (SMA)
Sat 05:34:23 AM 32.8300 -97.3806 105° East 287 330 6,600 -2,100 Descending FAA TRACON SMA TRACON (SMA)
Sat 05:35:03 AM 32.8167 -97.3211 105° East 272 313 5,200 -2,000 Descending FAA TRACON SMA TRACON (SMA)
Sat 05:35:44 AM 32.8053 -97.2692 105° East 262 302 3,900 -1,500 Descending FAA TRACON SMA TRACON (SMA)
Sat 05:36:23 AM 32.7925 -97.2133 105° East 253 291 3,200 -759 Descending FAA TRACON SMA TRACON (SMA)
Sat 05:37:03 AM 32.7808 -97.1611 101° East 234 269 2,900 -150 Descending FAA TRACON SMA TRACON (SMA)
Sat 05:37:43 AM 32.7736 -97.1167 90° East 222 255 3,000 -75 Climbing FAA TRACON SMA TRACON (SMA)
Sat 05:38:23 AM 32.7736 -97.0686 56° Northeast 207 238 2,800 -593 Descending FAA TRACON SMA TRACON (SMA)
Sat 05:39:04 AM 32.7925 -97.0347 North 182 209 2,200 -825 Descending FAA TRACON SMA TRACON (SMA)
Sat 05:39:43 AM 32.8178 -97.0297 360° North 150 173 1,700 -759 Descending FAA TRACON SMA TRACON (SMA)
Sat 05:40:23 AM 32.8475 -97.0297 360° North 154 177 1,200 -750 Descending FAA TRACON SMA TRACON (SMA)

Login

Don't have an account? Register now (free) for customized features, flight alerts, and more!